createdAt,value
2024-01-10T00:00:58.842Z,58.20
2024-01-10T00:03:25.890Z,59.21
2024-01-10T00:05:52.763Z,59.26
2024-01-10T00:08:20.243Z,59.53
2024-01-10T00:10:47.276Z,59.40
2024-01-10T00:13:14.325Z,59.63
2024-01-10T00:15:41.190Z,59.62
2024-01-10T00:18:08.177Z,59.31
2024-01-10T00:20:35.108Z,59.48
2024-01-10T00:23:02.105Z,59.71
2024-01-10T00:25:28.991Z,59.11
2024-01-10T00:27:56.353Z,58.79
2024-01-10T00:30:23.713Z,58.01
2024-01-10T00:32:50.666Z,58.20
2024-01-10T00:35:18.032Z,57.75
2024-01-10T00:37:44.966Z,58.01
2024-01-10T00:40:12.037Z,57.23
2024-01-10T00:42:38.952Z,56.40
2024-01-10T00:45:06.404Z,56.14
2024-01-10T00:47:33.317Z,56.21
2024-01-10T00:50:00.833Z,55.82
2024-01-10T00:52:27.749Z,55.27
2024-01-10T00:54:54.807Z,54.78
2024-01-10T00:57:21.662Z,55.08
2024-01-10T00:59:48.754Z,55.09
2024-01-10T01:02:15.798Z,54.56
2024-01-10T01:04:42.886Z,54.40
2024-01-10T01:07:10.145Z,55.40
2024-01-10T01:09:37.023Z,55.25
2024-01-10T01:12:04.374Z,55.12
2024-01-10T01:14:31.319Z,54.18
2024-01-10T01:16:58.239Z,54.00
2024-01-10T01:19:25.183Z,54.37
2024-01-10T01:21:52.366Z,54.37
2024-01-10T01:24:19.191Z,54.36
2024-01-10T01:26:46.236Z,54.32
2024-01-10T01:29:13.222Z,54.94
2024-01-10T01:31:41.550Z,54.87
2024-01-10T01:34:08.675Z,54.75
2024-01-10T01:36:35.884Z,54.47
2024-01-10T01:39:02.896Z,54.93
2024-01-10T01:41:29.793Z,55.32
2024-01-10T01:43:56.836Z,54.77
2024-01-10T01:46:24.655Z,54.59
2024-01-10T01:48:52.100Z,54.79
2024-01-10T01:51:21.852Z,54.44
2024-01-10T01:53:51.149Z,53.80
2024-01-10T01:56:18.605Z,53.47
2024-01-10T01:58:47.140Z,53.18
2024-01-10T02:01:14.271Z,53.17
2024-01-10T02:03:41.431Z,53.39
2024-01-10T02:06:08.407Z,53.48
2024-01-10T02:08:36.829Z,53.35
2024-01-10T02:11:05.080Z,53.05
2024-01-10T02:13:34.266Z,53.46
2024-01-10T02:16:01.726Z,53.12
2024-01-10T02:18:28.905Z,53.13
2024-01-10T02:20:56.087Z,53.25
2024-01-10T02:23:23.113Z,53.13
2024-01-10T02:25:50.877Z,53.39
2024-01-10T02:28:17.946Z,52.97
2024-01-10T02:30:45.108Z,52.57
2024-01-10T02:33:12.226Z,52.49
2024-01-10T02:35:39.190Z,52.52
2024-01-10T02:38:07.204Z,52.73
2024-01-10T02:40:34.275Z,53.11
2024-01-10T02:43:01.296Z,53.61
2024-01-10T02:45:28.175Z,53.32
2024-01-10T02:47:55.166Z,52.69
2024-01-10T02:50:22.174Z,53.26
2024-01-10T02:52:50.141Z,53.34
2024-01-10T02:55:17.236Z,53.21
2024-01-10T02:57:44.176Z,53.10
2024-01-10T03:00:12.510Z,53.20
2024-01-10T03:02:39.577Z,53.81
2024-01-10T03:05:06.886Z,53.59
2024-01-10T03:07:33.760Z,53.35
2024-01-10T03:10:00.965Z,53.12
2024-01-10T03:12:27.919Z,53.65
2024-01-10T03:14:54.757Z,53.03
2024-01-10T03:17:21.712Z,53.05
2024-01-10T03:19:48.838Z,53.41
2024-01-10T03:22:15.788Z,52.97
2024-01-10T03:24:42.658Z,52.82
2024-01-10T03:27:09.612Z,53.00
2024-01-10T03:29:36.590Z,53.66
2024-01-10T03:32:03.985Z,53.86
2024-01-10T03:34:30.870Z,53.42
2024-01-10T03:36:57.755Z,53.81
2024-01-10T03:39:24.602Z,53.60
2024-01-10T03:41:51.473Z,53.73
2024-01-10T03:44:18.633Z,53.57
2024-01-10T03:46:46.170Z,53.39
2024-01-10T03:49:13.256Z,52.90
2024-01-10T03:51:41.954Z,53.05
2024-01-10T03:54:08.908Z,53.01
2024-01-10T03:56:36.111Z,52.68
2024-01-10T03:59:03.341Z,52.67
2024-01-10T04:01:30.357Z,52.96
2024-01-10T04:03:57.262Z,52.58
2024-01-10T04:06:25.487Z,53.26
2024-01-10T04:08:52.383Z,52.81
2024-01-10T04:11:19.331Z,52.38
2024-01-10T04:13:46.461Z,53.24
2024-01-10T04:16:14.344Z,52.93
2024-01-10T04:18:42.119Z,52.72
2024-01-10T04:21:09.989Z,52.56
2024-01-10T04:23:37.099Z,53.20
2024-01-10T04:26:04.618Z,52.27
2024-01-10T04:28:31.782Z,52.13
2024-01-10T04:30:58.797Z,52.41
2024-01-10T04:33:25.965Z,51.73
2024-01-10T04:35:52.885Z,51.86
2024-01-10T04:38:20.063Z,51.69
2024-01-10T04:40:47.075Z,51.21
2024-01-10T04:43:13.987Z,51.55
2024-01-10T04:45:40.807Z,51.69
2024-01-10T04:48:08.214Z,51.41
2024-01-10T04:50:36.274Z,52.26
2024-01-10T04:53:03.379Z,52.63
2024-01-10T04:55:30.397Z,52.45
2024-01-10T04:57:57.323Z,51.88
2024-01-10T05:00:24.199Z,52.15
2024-01-10T05:02:53.042Z,52.08
2024-01-10T05:05:25.195Z,52.33
2024-01-10T05:07:52.767Z,52.63
2024-01-10T05:10:19.767Z,53.16
2024-01-10T05:12:46.606Z,53.15
2024-01-10T05:15:13.705Z,52.12
2024-01-10T05:17:40.602Z,52.51
2024-01-10T05:20:08.189Z,52.26
2024-01-10T05:22:36.846Z,52.74
2024-01-10T05:25:05.750Z,52.60
2024-01-10T05:27:33.000Z,52.60
2024-01-10T05:30:01.069Z,53.17
2024-01-10T05:32:29.042Z,53.01
2024-01-10T05:34:56.219Z,53.19
2024-01-10T05:37:23.694Z,53.84
2024-01-10T05:39:50.838Z,54.19
2024-01-10T05:42:17.998Z,54.14
2024-01-10T05:44:44.976Z,53.81
2024-01-10T05:47:12.043Z,53.93
2024-01-10T05:49:39.008Z,53.33
2024-01-10T05:52:06.175Z,53.76
2024-01-10T05:54:32.993Z,53.23
2024-01-10T05:57:02.137Z,52.95
2024-01-10T05:59:30.187Z,53.51
2024-01-10T06:01:58.734Z,53.76
2024-01-10T06:04:25.912Z,52.98
2024-01-10T06:06:52.792Z,52.61
2024-01-10T06:09:23.350Z,52.92
2024-01-10T06:11:50.378Z,53.31
2024-01-10T06:14:17.855Z,53.61
2024-01-10T06:16:46.584Z,53.78
2024-01-10T06:19:13.650Z,52.79
2024-01-10T06:21:40.558Z,52.97
2024-01-10T06:24:07.618Z,52.20
2024-01-10T06:26:34.448Z,51.99
2024-01-10T06:29:01.377Z,52.14
2024-01-10T06:31:28.277Z,52.21
2024-01-10T06:33:55.553Z,52.27
2024-01-10T06:36:22.868Z,52.98
2024-01-10T06:38:49.916Z,52.44
2024-01-10T06:41:16.998Z,52.23
2024-01-10T06:43:43.989Z,51.69
2024-01-10T06:46:12.057Z,52.13
2024-01-10T06:48:42.500Z,52.36
2024-01-10T06:51:15.007Z,52.64
2024-01-10T06:53:42.236Z,53.41
2024-01-10T06:56:10.854Z,53.25
2024-01-10T06:58:37.964Z,53.87
2024-01-10T07:01:06.848Z,53.68
2024-01-10T07:03:36.183Z,53.78
2024-01-10T07:06:03.358Z,53.30
2024-01-10T07:08:32.050Z,53.04
2024-01-10T07:10:59.162Z,53.52
2024-01-10T07:13:26.086Z,53.21
2024-01-10T07:15:53.834Z,53.45
2024-01-10T07:18:21.040Z,52.97
2024-01-10T07:20:48.291Z,52.85
2024-01-10T07:23:15.350Z,53.06
2024-01-10T07:25:42.488Z,53.56
2024-01-10T07:28:09.497Z,53.71
2024-01-10T07:30:36.449Z,53.45
2024-01-10T07:33:03.829Z,54.55
2024-01-10T07:35:31.708Z,54.49
2024-01-10T07:37:58.772Z,54.31
2024-01-10T07:40:25.850Z,54.43
2024-01-10T07:42:52.806Z,54.49
2024-01-10T07:45:19.667Z,53.94
2024-01-10T07:47:47.962Z,53.13
2024-01-10T07:50:16.566Z,52.83
2024-01-10T07:52:44.262Z,52.63
2024-01-10T07:55:11.254Z,52.00
2024-01-10T07:57:38.373Z,51.46
2024-01-10T08:00:12.298Z,50.93
2024-01-10T08:02:40.476Z,50.71
2024-01-10T08:05:09.991Z,50.33
2024-01-10T08:07:38.564Z,50.00
2024-01-10T08:10:07.352Z,49.98
2024-01-10T08:12:34.222Z,49.44
2024-01-10T08:15:01.896Z,49.05
2024-01-10T08:17:31.078Z,48.54
2024-01-10T08:19:58.209Z,48.32
2024-01-10T08:22:27.241Z,47.83
2024-01-10T08:24:57.453Z,47.33
2024-01-10T08:27:24.928Z,46.87
2024-01-10T08:29:52.612Z,46.87
2024-01-10T08:32:21.990Z,46.52
2024-01-10T08:34:50.225Z,46.03
2024-01-10T08:37:18.613Z,45.76
2024-01-10T08:39:45.677Z,45.21
2024-01-10T08:42:12.856Z,44.95
2024-01-10T08:44:39.995Z,44.98
2024-01-10T08:47:07.068Z,44.19
2024-01-10T08:49:34.050Z,43.35
2024-01-10T08:52:00.921Z,42.85
2024-01-10T08:54:28.307Z,42.34
2024-01-10T08:56:55.475Z,41.33
2024-01-10T08:59:22.467Z,40.41
2024-01-10T09:01:49.421Z,39.45
2024-01-10T09:04:16.394Z,38.74
2024-01-10T09:06:43.307Z,38.25
2024-01-10T09:09:10.248Z,38.18
2024-01-10T09:11:40.130Z,38.17
2024-01-10T09:14:10.532Z,37.44
2024-01-10T09:16:37.591Z,37.13
2024-01-10T09:19:05.171Z,36.76
2024-01-10T09:21:32.820Z,36.22
2024-01-10T09:24:03.789Z,35.36
2024-01-10T09:26:35.506Z,35.09
2024-01-10T09:29:02.405Z,34.50
2024-01-10T09:31:29.442Z,34.20
2024-01-10T09:33:56.487Z,33.81
2024-01-10T09:36:23.530Z,33.50
2024-01-10T09:38:50.457Z,33.06
2024-01-10T09:41:18.228Z,33.17
2024-01-10T09:43:45.231Z,33.06
2024-01-10T09:46:12.707Z,32.95
2024-01-10T09:48:40.065Z,33.07
2024-01-10T09:51:08.096Z,32.90
2024-01-10T09:56:06.169Z,33.44
2024-01-10T09:58:35.285Z,33.29
2024-01-10T10:01:05.240Z,33.37
2024-01-10T10:03:37.563Z,33.88
2024-01-10T10:06:05.932Z,34.14
2024-01-10T10:08:32.962Z,34.14
2024-01-10T10:11:00.516Z,34.39
2024-01-10T10:13:30.550Z,34.91
2024-01-10T10:16:01.110Z,35.43
2024-01-10T10:18:29.169Z,35.82
2024-01-10T10:21:13.786Z,35.99
2024-01-10T10:23:42.982Z,35.94
2024-01-10T10:26:12.463Z,35.56
2024-01-10T10:28:41.677Z,35.39
2024-01-10T10:31:09.927Z,35.83
2024-01-10T10:33:38.711Z,35.65
2024-01-10T10:36:06.254Z,35.57
2024-01-10T10:38:33.278Z,35.10
2024-01-10T10:41:01.085Z,34.68
2024-01-10T10:43:32.173Z,34.82
2024-01-10T10:45:59.575Z,35.09
2024-01-10T10:48:27.980Z,35.18
2024-01-10T10:51:05.133Z,35.16
2024-01-10T10:53:33.159Z,34.38
2024-01-10T10:56:01.785Z,34.23
2024-01-10T10:58:29.392Z,33.63
2024-01-10T11:00:58.463Z,33.29
2024-01-10T11:03:28.916Z,33.66
2024-01-10T11:05:56.976Z,33.73
2024-01-10T11:08:25.902Z,34.03
2024-01-10T11:10:54.582Z,33.64
2024-01-10T11:13:33.923Z,33.40
2024-01-10T11:16:27.408Z,33.27
2024-01-10T11:19:13.365Z,33.09
2024-01-10T11:22:11.662Z,32.84
2024-01-10T11:24:39.107Z,32.55
2024-01-10T11:27:13.402Z,32.31
2024-01-10T11:29:41.345Z,32.42
2024-01-10T11:32:14.385Z,32.49
2024-01-10T11:35:00.552Z,32.30
2024-01-10T11:37:41.159Z,32.65
2024-01-10T11:40:10.730Z,32.78
2024-01-10T11:42:46.970Z,33.23
2024-01-10T11:45:35.224Z,32.30
2024-01-10T11:48:02.325Z,31.82
2024-01-10T11:50:32.486Z,31.57
2024-01-10T11:52:59.566Z,31.28
2024-01-10T11:55:49.614Z,30.21
2024-01-10T11:58:18.205Z,30.01
2024-01-10T12:00:45.427Z,29.48
2024-01-10T12:03:14.123Z,28.93
2024-01-10T12:05:41.648Z,28.65
2024-01-10T12:08:09.887Z,28.28
2024-01-10T12:10:46.888Z,28.68
2024-01-10T12:13:13.770Z,28.74
2024-01-10T12:15:41.230Z,28.25
2024-01-10T12:18:10.101Z,28.37
2024-01-10T12:20:37.307Z,28.05
2024-01-10T12:23:04.468Z,27.89
2024-01-10T12:25:31.530Z,27.80
2024-01-10T12:28:02.986Z,27.29
2024-01-10T12:30:30.052Z,27.13
2024-01-10T12:32:56.951Z,26.74
2024-01-10T12:35:23.952Z,26.58
2024-01-10T12:37:59.039Z,26.68
2024-01-10T12:40:26.289Z,26.05
2024-01-10T12:43:10.830Z,26.08
2024-01-10T12:45:38.245Z,26.16
2024-01-10T12:48:05.853Z,26.19
2024-01-10T12:50:32.968Z,26.15
2024-01-10T12:53:00.651Z,26.38
2024-01-10T12:55:29.371Z,26.61
2024-01-10T12:58:00.831Z,27.12
2024-01-10T13:00:30.274Z,27.17
2024-01-10T13:02:57.478Z,27.35
2024-01-10T13:05:24.629Z,27.60
2024-01-10T13:07:51.966Z,26.56
2024-01-10T13:10:19.834Z,26.66
2024-01-10T13:12:46.777Z,26.88
2024-01-10T13:15:13.715Z,27.30
2024-01-10T13:17:41.287Z,27.74
2024-01-10T13:20:11.002Z,27.64
2024-01-10T13:22:38.104Z,27.63
2024-01-10T13:25:05.533Z,27.84
2024-01-10T13:27:33.401Z,28.42
2024-01-10T13:30:00.397Z,28.70
2024-01-10T13:32:27.294Z,28.80
2024-01-10T13:34:54.254Z,28.00
2024-01-10T13:37:21.266Z,27.99
2024-01-10T13:39:48.130Z,29.42
2024-01-10T13:42:15.138Z,29.41
2024-01-10T13:44:42.308Z,29.95
2024-01-10T13:47:10.501Z,30.21
2024-01-10T13:49:37.344Z,30.34
2024-01-10T13:52:05.266Z,31.16
2024-01-10T13:54:32.206Z,32.44
2024-01-10T13:56:59.113Z,33.26
2024-01-10T13:59:26.128Z,33.77
2024-01-10T14:01:54.534Z,34.37
2024-01-10T14:04:21.450Z,34.94
2024-01-10T14:06:48.322Z,35.76
2024-01-10T14:09:15.597Z,37.43
2024-01-10T14:11:42.593Z,38.28
2024-01-10T14:14:09.542Z,39.05
2024-01-10T14:16:36.551Z,40.26
2024-01-10T14:19:04.198Z,40.86
2024-01-10T14:21:33.353Z,41.50
2024-01-10T14:24:02.499Z,42.94
2024-01-10T14:26:29.441Z,44.10
2024-01-10T14:28:58.068Z,44.85
2024-01-10T14:31:33.501Z,45.71
2024-01-10T14:34:09.509Z,46.45
2024-01-10T14:36:41.263Z,47.13
2024-01-10T14:39:09.413Z,47.83
2024-01-10T14:41:36.310Z,48.23
2024-01-10T14:44:05.030Z,48.53
2024-01-10T14:46:32.478Z,48.79
2024-01-10T14:48:59.523Z,48.64
2024-01-10T14:51:26.872Z,49.13
2024-01-10T14:53:54.049Z,50.34
2024-01-10T14:56:22.192Z,51.45
2024-01-10T14:58:49.181Z,52.01
2024-01-10T15:01:16.197Z,52.16
2024-01-10T15:03:44.068Z,51.95
2024-01-10T15:06:11.469Z,52.32
2024-01-10T15:08:38.459Z,52.98
2024-01-10T15:11:05.432Z,53.24
2024-01-10T15:13:32.364Z,53.05
2024-01-10T15:15:59.494Z,53.28
2024-01-10T15:18:26.456Z,53.47
2024-01-10T15:20:53.779Z,53.78
2024-01-10T15:23:20.734Z,53.13
2024-01-10T15:25:47.725Z,52.80
2024-01-10T15:28:14.674Z,52.84
2024-01-10T15:30:47.857Z,52.78
2024-01-10T15:33:15.578Z,53.36
2024-01-10T15:35:42.644Z,53.00
2024-01-10T15:38:09.655Z,52.88
2024-01-10T15:40:36.561Z,53.07
2024-01-10T15:43:03.570Z,53.58
2024-01-10T15:45:32.824Z,53.83
2024-01-10T15:48:00.672Z,54.34
2024-01-10T15:50:28.295Z,54.63
2024-01-10T15:52:55.342Z,54.80
2024-01-10T15:55:22.256Z,54.92
2024-01-10T15:57:50.025Z,55.22
2024-01-10T16:00:17.391Z,55.63
2024-01-10T16:02:44.267Z,55.65
2024-01-10T16:05:11.403Z,55.95
2024-01-10T16:07:38.413Z,56.88
2024-01-10T16:10:05.779Z,57.72
2024-01-10T16:12:32.926Z,57.82
2024-01-10T16:14:59.976Z,57.77
2024-01-10T16:17:26.922Z,57.56
2024-01-10T16:19:53.920Z,58.03
2024-01-10T16:22:20.830Z,57.88
2024-01-10T16:24:47.769Z,57.44
2024-01-10T16:27:14.714Z,57.65
2024-01-10T16:29:41.771Z,57.50
2024-01-10T16:32:08.845Z,57.03
2024-01-10T16:34:36.767Z,56.69
2024-01-10T16:37:04.918Z,56.76
2024-01-10T16:39:31.822Z,56.59
2024-01-10T16:41:58.779Z,56.64
2024-01-10T16:44:25.847Z,56.51
2024-01-10T16:46:52.934Z,56.66
2024-01-10T16:49:20.047Z,57.00
2024-01-10T16:51:47.026Z,56.83
2024-01-10T16:54:14.090Z,56.93
2024-01-10T16:56:41.126Z,56.84
2024-01-10T16:59:08.541Z,56.34
2024-01-10T17:01:37.036Z,56.92
2024-01-10T17:04:04.671Z,57.01
2024-01-10T17:06:32.531Z,57.19
2024-01-10T17:09:02.158Z,57.19
2024-01-10T17:11:37.435Z,57.07
2024-01-10T17:14:04.595Z,56.96
2024-01-10T17:16:36.483Z,56.47
2024-01-10T17:19:04.181Z,56.65
2024-01-10T17:21:31.181Z,56.55
2024-01-10T17:23:58.227Z,56.55
2024-01-10T17:26:25.478Z,56.77
2024-01-10T17:28:52.935Z,57.43
2024-01-10T17:31:20.117Z,57.05
2024-01-10T17:33:47.381Z,58.04
2024-01-10T17:36:14.964Z,57.82
2024-01-10T17:38:42.011Z,57.46
2024-01-10T17:41:09.993Z,57.03
2024-01-10T17:43:39.246Z,57.24
2024-01-10T17:46:06.079Z,57.05
2024-01-10T17:48:33.124Z,57.24
2024-01-10T17:51:00.139Z,56.65
2024-01-10T17:53:27.315Z,56.47
2024-01-10T17:55:54.295Z,56.98
2024-01-10T17:58:21.359Z,57.85
2024-01-10T18:00:48.313Z,57.92
2024-01-10T18:03:15.707Z,57.70
2024-01-10T18:05:44.470Z,58.03
2024-01-10T18:08:11.523Z,58.74
2024-01-10T18:10:38.651Z,61.26
2024-01-10T18:13:06.359Z,63.74
2024-01-10T18:15:34.059Z,63.59
2024-01-10T18:18:01.057Z,62.51
2024-01-10T18:20:29.870Z,63.05
2024-01-10T18:22:56.950Z,64.26
2024-01-10T18:25:23.976Z,65.28
2024-01-10T18:27:50.807Z,65.53
2024-01-10T18:30:17.881Z,65.28
2024-01-10T18:32:45.026Z,65.56
2024-01-10T18:35:12.201Z,66.04
2024-01-10T18:37:39.244Z,66.29
2024-01-10T18:40:06.701Z,66.54
2024-01-10T18:42:33.552Z,66.35
2024-01-10T18:45:00.910Z,66.27
2024-01-10T18:47:27.927Z,65.64
2024-01-10T18:49:55.466Z,64.57
2024-01-10T18:52:22.353Z,63.82
2024-01-10T18:54:49.322Z,63.24
2024-01-10T18:57:19.634Z,62.69
2024-01-10T18:59:46.779Z,62.21
2024-01-10T19:02:14.428Z,62.12
2024-01-10T19:04:41.395Z,61.50
2024-01-10T19:07:08.339Z,60.41
2024-01-10T19:09:35.241Z,59.66
2024-01-10T19:12:05.805Z,59.20
2024-01-10T19:14:35.953Z,58.98
2024-01-10T19:17:03.126Z,59.07
2024-01-10T19:19:30.519Z,58.69
2024-01-10T19:22:01.679Z,58.55
2024-01-10T19:24:29.461Z,58.25
2024-01-10T19:26:56.432Z,58.27
2024-01-10T19:29:25.021Z,58.62
2024-01-10T19:31:53.114Z,58.59
2024-01-10T19:34:21.254Z,58.43
2024-01-10T19:36:48.484Z,58.08
2024-01-10T19:39:16.964Z,57.35
2024-01-10T19:41:43.942Z,57.71
2024-01-10T19:44:10.992Z,57.69
2024-01-10T19:46:38.217Z,58.20
2024-01-10T19:49:05.374Z,58.02
2024-01-10T19:51:34.640Z,57.54
2024-01-10T19:54:01.792Z,57.38
2024-01-10T19:56:31.307Z,57.45
2024-01-10T19:58:59.235Z,57.64
2024-01-10T20:01:26.973Z,57.87
2024-01-10T20:03:54.231Z,57.08
2024-01-10T20:06:21.361Z,56.90
2024-01-10T20:08:48.423Z,57.12
2024-01-10T20:11:16.043Z,57.11
2024-01-10T20:13:45.989Z,57.27
2024-01-10T20:16:13.652Z,57.26
2024-01-10T20:18:40.628Z,57.44
2024-01-10T20:21:07.870Z,58.17
2024-01-10T20:23:36.869Z,58.65
2024-01-10T20:26:06.099Z,59.24
2024-01-10T20:28:33.098Z,59.37
2024-01-10T20:31:00.064Z,59.61
2024-01-10T20:33:27.744Z,59.53
2024-01-10T20:35:55.322Z,59.99
2024-01-10T20:38:22.230Z,60.22
2024-01-10T20:40:49.296Z,60.20
2024-01-10T20:43:16.286Z,59.56
2024-01-10T20:45:43.665Z,58.50
2024-01-10T20:48:10.719Z,57.95
2024-01-10T20:50:41.360Z,57.94
2024-01-10T20:53:08.497Z,58.31
2024-01-10T20:55:35.848Z,58.61
2024-01-10T20:58:03.410Z,58.70
2024-01-10T21:00:31.152Z,57.94
2024-01-10T21:02:58.128Z,57.40
2024-01-10T21:05:25.048Z,57.77
2024-01-10T21:07:53.132Z,57.65
2024-01-10T21:10:20.060Z,57.90
2024-01-10T21:12:47.001Z,57.80
2024-01-10T21:15:14.069Z,58.10
2024-01-10T21:17:41.068Z,58.18
2024-01-10T21:20:10.195Z,57.88
2024-01-10T21:22:37.335Z,57.94
2024-01-10T21:25:05.043Z,58.04
2024-01-10T21:27:32.323Z,59.05
2024-01-10T21:29:59.255Z,60.43
2024-01-10T21:32:26.524Z,61.20
2024-01-10T21:34:54.697Z,61.77
2024-01-10T21:37:21.736Z,61.77
2024-01-10T21:39:48.616Z,61.02
2024-01-10T21:42:15.514Z,60.73
2024-01-10T21:44:43.797Z,60.39
2024-01-10T21:47:10.815Z,60.32
2024-01-10T21:49:37.660Z,59.85
2024-01-10T21:52:06.700Z,59.99
2024-01-10T21:54:34.451Z,60.05
2024-01-10T21:57:01.911Z,59.88
2024-01-10T21:59:28.915Z,59.34
2024-01-10T22:01:55.782Z,59.16
2024-01-10T22:04:22.748Z,58.82
2024-01-10T22:06:49.927Z,59.04
2024-01-10T22:09:16.921Z,59.21
2024-01-10T22:11:43.823Z,58.87
2024-01-10T22:14:10.910Z,58.06
2024-01-10T22:16:37.799Z,57.79
2024-01-10T22:19:04.741Z,57.59
2024-01-10T22:21:31.749Z,57.91
2024-01-10T22:23:58.724Z,57.80
2024-01-10T22:26:25.597Z,58.00
2024-01-10T22:28:52.750Z,58.21
2024-01-10T22:31:19.705Z,57.74
2024-01-10T22:33:47.124Z,58.57
2024-01-10T22:36:15.086Z,58.52
2024-01-10T22:38:43.026Z,58.32
2024-01-10T22:41:09.999Z,57.68
2024-01-10T22:43:37.078Z,57.44
2024-01-10T22:46:04.036Z,57.20
2024-01-10T22:48:31.646Z,56.92
2024-01-10T22:51:00.428Z,57.05
2024-01-10T22:53:27.629Z,56.61
2024-01-10T22:55:54.643Z,56.46
2024-01-10T22:58:23.419Z,56.56
2024-01-10T23:00:52.233Z,56.41
2024-01-10T23:03:20.794Z,56.17
2024-01-10T23:05:48.023Z,55.99
2024-01-10T23:08:15.107Z,56.19
2024-01-10T23:10:42.336Z,56.63
2024-01-10T23:13:09.223Z,56.97
2024-01-10T23:15:36.094Z,57.48
2024-01-10T23:18:03.334Z,57.66
2024-01-10T23:20:30.354Z,57.32
2024-01-10T23:22:57.352Z,57.69
2024-01-10T23:25:24.288Z,57.76
2024-01-10T23:27:51.812Z,57.61
2024-01-10T23:30:19.919Z,57.88
2024-01-10T23:32:48.003Z,58.35
2024-01-10T23:35:15.210Z,58.21
2024-01-10T23:37:42.628Z,58.39
2024-01-10T23:40:09.960Z,58.28
2024-01-10T23:42:36.864Z,58.25
2024-01-10T23:45:04.063Z,58.14
2024-01-10T23:47:31.034Z,58.17
2024-01-10T23:49:58.099Z,58.12
2024-01-10T23:52:24.974Z,57.89
2024-01-10T23:54:51.950Z,57.94
2024-01-10T23:57:18.869Z,57.93
2024-01-10T23:59:45.836Z,58.01
